Time;durP1;ratioP1;P1;durP2;ratioP2;P2;SDS_P1;SDS_P2;PMS_P1;PMS_P2;Temp;Humidity;BMP_temperature;BMP_pressure;BME280_temperature;BME280_humidity;BME280_pressure;Samples;Min_cycle;Max_cycle;Signal;HPM_P1;HPM_P2
2023/01/28 00:00:08;;;;;;;8.30;7.55;;;;;;;-146.25;72.73;52457.41;2096686;28;36129;-69
2023/01/28 00:01:13;;;;;;;9.95;8.02;;;;;;;-146.25;72.23;52493.91;2096615;28;37414;-69
2023/01/28 00:02:15;;;;;;;7.80;7.10;;;;;;;-146.25;71.60;52467.56;2095260;28;37339;-68
2023/01/28 00:03:17;;;;;;;8.10;6.95;;;;;;;-146.25;72.08;52506.06;2095817;28;39819;-71
2023/01/28 00:04:19;;;;;;;7.57;6.88;;;;;;;-146.25;71.81;52467.56;2096336;28;39125;-68
2023/01/28 00:05:22;;;;;;;7.78;7.07;;;;;;;-146.25;72.03;52441.19;2096373;28;37312;-68
2023/01/28 00:06:24;;;;;;;7.75;6.82;;;;;;;-146.25;72.26;52508.09;2096370;28;41224;-71
2023/01/28 00:07:26;;;;;;;7.53;6.65;;;;;;;-146.25;72.43;52445.25;2097336;28;20041;-71
2023/01/28 00:08:28;;;;;;;7.10;6.30;;;;;;;-146.25;72.34;52453.34;2096719;28;38975;-70
2023/01/28 00:09:30;;;;;;;8.90;7.25;;;;;;;-146.25;72.54;52445.25;2096552;28;38341;-69
2023/01/28 00:10:31;;;;;;;8.48;7.00;;;;;;;-146.25;72.46;52485.81;2096880;28;24577;-70
2023/01/28 00:11:33;;;;;;;7.47;6.78;;;;;;;-146.25;72.52;52443.22;2096224;28;39412;-68
2023/01/28 00:12:35;;;;;;;8.07;7.32;;;;;;;-146.25;72.83;52475.66;2096539;28;37962;-70
2023/01/28 00:13:41;;;;;;;8.60;7.22;;;;;;;-146.25;72.41;52459.44;2096594;28;34438;-70
2023/01/28 00:14:46;;;;;;;8.52;7.45;;;;;;;-146.25;72.55;52427.00;2096420;28;40537;-69
2023/01/28 00:15:55;;;;;;;8.50;7.00;;;;;;;-146.25;72.63;52441.19;2096187;28;38210;-70
2023/01/28 00:16:57;;;;;;;8.13;7.15;;;;;;;-146.25;72.85;52485.81;2096462;28;39377;-69
2023/01/28 00:17:59;;;;;;;8.55;7.25;;;;;;;-146.25;72.83;52497.97;2096267;28;38839;-69
2023/01/28 00:19:01;;;;;;;9.40;7.00;;;;;;;-146.25;72.68;52447.28;2097239;28;20037;-70
2023/01/28 00:20:06;;;;;;;7.65;6.68;;;;;;;-146.25;73.22;52463.50;2096314;28;40515;-70
2023/01/28 00:21:13;;;;;;;8.10;7.30;;;;;;;-146.25;73.36;52467.56;2096203;28;39685;-70
2023/01/28 00:22:15;;;;;;;7.95;7.20;;;;;;;-146.25;73.47;52469.56;2096795;28;35165;-69
2023/01/28 00:23:17;;;;;;;7.03;6.35;;;;;;;-146.25;73.77;52467.56;2096280;28;42286;-70
2023/01/28 00:24:18;;;;;;;7.80;7.10;;;;;;;-146.25;73.99;52508.09;2095969;28;39510;-70
2023/01/28 00:25:20;;;;;;;7.50;6.80;;;;;;;-146.25;74.02;52485.81;2096374;28;37439;-69
2023/01/28 00:26:24;;;;;;;8.88;6.22;;;;;;;-146.25;74.01;52435.09;2096232;28;38540;-68
2023/01/28 00:27:25;;;;;;;8.07;6.53;;;;;;;-146.25;73.53;52475.66;2104493;28;22595;-69
2023/01/28 00:28:27;;;;;;;8.25;7.07;;;;;;;-146.25;72.50;52506.06;2104060;28;40405;-69
2023/01/28 00:29:29;;;;;;;7.40;6.70;;;;;;;-146.25;72.89;52491.88;2104211;28;28777;-69
2023/01/28 00:30:30;;;;;;;7.82;6.65;;;;;;;-146.25;73.02;52441.19;2105036;28;29119;-69
2023/01/28 00:31:34;;;;;;;7.50;6.80;;;;;;;-146.25;73.29;52451.31;2103749;28;39436;-69
2023/01/28 00:32:35;;;;;;;8.05;7.05;;;;;;;-146.25;73.29;52465.53;2104584;28;20043;-69
2023/01/28 00:33:37;;;;;;;8.68;6.60;;;;;;;-146.25;72.97;52485.81;2104179;28;39018;-69
2023/01/28 00:34:41;;;;;;;7.75;6.80;;;;;;;-146.25;72.84;52453.34;2095760;28;32992;-69
2023/01/28 00:35:42;;;;;;;6.95;6.32;;;;;;;-146.25;72.97;52473.63;2095670;28;37724;-69
2023/01/28 00:36:44;;;;;;;8.38;7.57;;;;;;;-146.25;72.80;52477.69;2096777;28;30890;-69
2023/01/28 00:37:46;;;;;;;8.85;7.20;;;;;;;-146.25;72.52;52483.78;2096554;28;31141;-70
2023/01/28 00:38:57;;;;;;;8.00;6.53;;;;;;;-146.25;72.42;52489.84;2096501;28;33610;-69
2023/01/28 00:40:00;;;;;;;6.78;6.00;;;;;;;-146.25;72.35;52445.25;2097342;28;25935;-70
2023/01/28 00:41:11;;;;;;;8.23;6.05;;;;;;;-146.25;72.23;52481.75;2097812;28;20080;-69
2023/01/28 00:42:12;;;;;;;8.73;7.70;;;;;;;-146.25;72.12;52477.69;2103694;28;37803;-69
2023/01/28 00:43:14;;;;;;;8.73;6.93;;;;;;;-146.25;72.26;52465.53;2104946;28;20036;-70
2023/01/28 00:44:16;;;;;;;8.13;7.22;;;;;;;-146.25;72.16;52465.53;2096851;28;27182;-70
2023/01/28 00:45:18;;;;;;;7.75;6.93;;;;;;;-146.25;72.40;52451.31;2096816;28;29826;-70
2023/01/28 00:46:21;;;;;;;8.90;7.30;;;;;;;-146.25;71.86;52453.34;2096995;28;20041;-70
2023/01/28 00:47:23;;;;;;;7.40;6.68;;;;;;;-146.25;71.92;52475.66;2096898;28;20048;-69
2023/01/28 00:48:26;;;;;;;7.22;6.53;;;;;;;-146.25;71.85;52433.06;2096126;28;20060;-70
2023/01/28 00:49:28;;;;;;;10.82;6.57;;;;;;;-146.25;71.48;52451.31;2096240;28;20105;-69
2023/01/28 00:50:30;;;;;;;6.75;5.82;;;;;;;-146.25;71.33;52473.63;2096406;28;37856;-70
2023/01/28 00:51:33;;;;;;;6.70;5.93;;;;;;;-146.25;71.10;52477.69;2097035;28;20037;-69
2023/01/28 00:52:35;;;;;;;6.95;6.30;;;;;;;-146.25;71.71;52445.25;2104061;28;33893;-70
2023/01/28 00:53:40;;;;;;;7.32;6.55;;;;;;;-146.25;71.94;52463.50;2104388;28;38815;-70
2023/01/28 00:54:41;;;;;;;8.50;5.82;;;;;;;-146.25;71.52;52445.25;2096087;28;30257;-69
2023/01/28 00:55:43;;;;;;;7.00;6.00;;;;;;;-146.25;71.92;52441.19;2096471;28;26479;-69
2023/01/28 00:56:47;;;;;;;6.80;6.10;;;;;;;-146.25;72.10;52495.94;2096959;28;24530;-69
2023/01/28 00:57:50;;;;;;;9.75;7.15;;;;;;;-146.25;71.34;52465.53;2096585;28;29063;-69
2023/01/28 00:58:52;;;;;;;7.43;6.15;;;;;;;-146.25;71.97;52481.75;2096217;28;33544;-70
2023/01/28 00:59:54;;;;;;;6.68;6.07;;;;;;;-146.25;72.29;52469.56;2096828;28;20033;-69
2023/01/28 01:00:56;;;;;;;7.40;6.63;;;;;;;-146.25;71.81;52487.81;2104307;28;20045;-69
2023/01/28 01:02:10;;;;;;;7.63;6.90;;;;;;;-146.25;71.42;52441.19;2103796;28;35303;-69
2023/01/28 01:03:12;;;;;;;6.95;6.22;;;;;;;-146.25;72.14;52441.19;2096230;28;37142;-69
2023/01/28 01:04:25;;;;;;;6.72;6.03;;;;;;;-146.25;72.29;52445.25;2096340;28;33918;-69
2023/01/28 01:05:28;;;;;;;7.55;6.57;;;;;;;-146.25;71.81;52489.84;2095860;28;21121;-70
2023/01/28 01:06:36;;;;;;;9.80;6.72;;;;;;;-146.25;71.34;52493.91;2096229;28;20052;-69
2023/01/28 01:07:41;;;;;;;7.30;6.60;;;;;;;-146.25;71.04;52485.81;2095216;28;38345;-70
2023/01/28 01:08:48;;;;;;;7.45;6.65;;;;;;;-146.25;71.34;52461.47;2095514;28;34633;-68
2023/01/28 01:09:51;;;;;;;7.63;6.88;;;;;;;-146.25;70.89;52459.44;2097041;28;20108;-69
2023/01/28 01:10:57;;;;;;;8.55;6.00;;;;;;;-146.25;71.42;52453.34;2095538;28;41436;-69
2023/01/28 01:11:59;;;;;;;6.68;5.75;;;;;;;-146.25;71.97;52497.97;2095450;28;30648;-69
2023/01/28 01:13:02;;;;;;;6.82;6.13;;;;;;;-146.25;72.08;52439.16;2087777;28;20078;-70
2023/01/28 01:14:05;;;;;;;6.57;5.88;;;;;;;-146.25;72.15;52471.59;2087415;28;32301;-69
2023/01/28 01:15:12;;;;;;;7.50;6.35;;;;;;;-146.25;72.50;52437.13;2104196;28;20169;-70
2023/01/28 01:16:17;;;;;;;7.78;6.60;;;;;;;-146.25;72.77;52469.56;2104293;28;28212;-70
2023/01/28 01:17:22;;;;;;;7.65;6.93;;;;;;;-146.25;72.89;52416.84;2096161;28;20218;-70
2023/01/28 01:18:24;;;;;;;6.95;6.20;;;;;;;-146.25;72.93;52447.28;2088501;28;28943;-70
2023/01/28 01:19:28;;;;;;;6.50;5.90;;;;;;;-146.25;72.97;52465.53;2096230;28;20768;-69
2023/01/28 01:20:32;;;;;;;6.57;5.90;;;;;;;-146.25;73.04;52441.19;2103977;28;39661;-69
2023/01/28 01:21:34;;;;;;;6.88;6.15;;;;;;;-146.25;72.81;52449.31;2103712;28;24517;-69
2023/01/28 01:22:35;;;;;;;8.60;5.70;;;;;;;-146.25;72.49;52447.28;2096061;28;40783;-70
2023/01/28 01:23:38;;;;;;;5.97;5.40;;;;;;;-146.25;72.62;52437.13;2096716;28;20041;-69
2023/01/28 01:24:40;;;;;;;5.50;4.93;;;;;;;-146.25;72.34;52475.66;2096879;28;20041;-70
2023/01/28 01:25:42;;;;;;;5.45;4.93;;;;;;;-146.25;72.34;52441.19;2096277;28;25872;-70
2023/01/28 01:26:43;;;;;;;6.57;5.50;;;;;;;-146.25;72.23;52497.97;2095905;28;32397;-70
2023/01/28 01:27:49;;;;;;;6.03;5.43;;;;;;;-146.25;72.19;52465.53;2095859;28;20095;-70
2023/01/28 01:28:52;;;;;;;5.80;5.30;;;;;;;-146.25;72.43;52441.19;2088358;28;20038;-69
2023/01/28 01:29:53;;;;;;;5.35;4.85;;;;;;;-146.25;72.71;52485.81;2095098;28;37780;-70
2023/01/28 01:31:04;;;;;;;6.93;4.63;;;;;;;-146.25;72.70;52483.78;2096803;28;20790;-69
2023/01/28 01:32:07;;;;;;;8.13;5.45;;;;;;;-146.25;72.93;52469.56;2096537;28;20045;-69
2023/01/28 01:33:09;;;;;;;5.90;5.30;;;;;;;-146.25;72.74;52479.72;2086937;28;34359;-70
2023/01/28 01:34:13;;;;;;;6.32;5.13;;;;;;;-146.25;72.89;52487.81;2087461;28;28992;-70
2023/01/28 01:35:15;;;;;;;8.27;5.50;;;;;;;-146.25;72.68;52449.31;2096182;28;31961;-69
2023/01/28 01:36:20;;;;;;;6.57;5.07;;;;;;;-146.25;72.64;52465.53;2096538;28;20047;-69
2023/01/28 01:37:22;;;;;;;6.22;4.88;;;;;;;-146.25;72.56;52447.28;2095945;28;34720;-70
2023/01/28 01:38:27;;;;;;;6.28;5.07;;;;;;;-146.25;72.42;52479.72;2096005;28;32254;-70
2023/01/28 01:39:28;;;;;;;5.90;5.03;;;;;;;-146.25;72.72;52512.16;2087777;28;20041;-69
2023/01/28 01:40:30;;;;;;;5.43;4.88;;;;;;;-146.25;72.47;52493.91;2079543;28;34107;-70
2023/01/28 01:41:34;;;;;;;7.40;5.75;;;;;;;-146.25;71.89;52465.53;2087866;28;20085;-70
2023/01/28 01:42:37;;;;;;;6.63;5.13;;;;;;;-146.25;71.97;52508.09;2096189;28;20085;-70
2023/01/28 01:44:00;;;;;;;6.13;5.40;;;;;;;-146.25;71.85;52439.16;2096248;28;35911;-70
2023/01/28 01:45:12;;;;;;;6.43;5.22;;;;;;;-146.25;71.97;52441.19;2096096;28;37653;-70
2023/01/28 01:46:35;;;;;;;6.03;5.43;;;;;;;-146.25;71.61;52485.81;2095520;28;31888;-69
2023/01/28 01:48:13;;;;;;;6.38;5.38;;;;;;;-146.25;71.61;52461.47;2081445;28;37782;-69
2023/01/28 01:49:23;;;;;;;6.68;5.28;;;;;;;-146.25;71.83;52473.63;2079156;28;35719;-69
2023/01/28 01:50:52;;;;;;;6.93;5.93;;;;;;;-146.25;71.05;52443.22;2094145;28;20025;-70
2023/01/28 01:52:12;;;;;;;8.20;5.55;;;;;;;-146.25;71.63;52469.56;2095754;28;32021;-70
2023/01/28 01:53:17;;;;;;;6.25;5.22;;;;;;;-146.25;71.65;52473.63;2095827;28;20049;-69
2023/01/28 01:54:22;;;;;;;7.32;5.32;;;;;;;-146.25;71.68;52469.56;2080199;28;20042;-69
2023/01/28 01:55:30;;;;;;;7.20;5.95;;;;;;;-146.25;72.00;52481.75;2088279;28;27214;-69
2023/01/28 01:56:43;;;;;;;7.15;5.70;;;;;;;-146.25;72.16;52437.13;2095265;28;34069;-69
2023/01/28 01:57:49;;;;;;;6.95;5.80;;;;;;;-146.25;72.50;52485.81;2082045;28;20053;-69
2023/01/28 01:58:55;;;;;;;7.03;5.72;;;;;;;-146.25;72.61;52441.19;2090057;28;22207;-69
2023/01/28 02:00:04;;;;;;;5.65;4.97;;;;;;;-146.25;72.64;52495.94;2095663;28;29716;-69
2023/01/28 02:01:14;;;;;;;5.78;5.00;;;;;;;-146.25;72.65;52453.34;2089858;28;20053;-69
2023/01/28 02:02:16;;;;;;;5.88;5.30;;;;;;;-146.25;72.83;52461.47;2089616;28;35559;-69
2023/01/28 02:03:27;;;;;;;8.02;5.78;;;;;;;-146.25;72.80;52473.63;2095084;28;32436;-70
2023/01/28 02:04:45;;;;;;;6.45;5.40;;;;;;;-146.25;72.83;52463.50;2096250;28;20045;-69
2023/01/28 02:05:50;;;;;;;6.75;5.80;;;;;;;-146.25;72.88;52477.69;2091773;28;20077;-70
2023/01/28 02:06:52;;;;;;;7.00;5.28;;;;;;;-146.25;72.92;52512.16;2095618;28;32669;-70
2023/01/28 02:09:28;;;;;;;6.25;5.63;;;;;;;-146.25;73.05;52489.84;2081821;28;31200;-70
2023/01/28 02:10:30;;;;;;;6.32;5.72;;;;;;;-146.25;72.59;52475.66;2092368;28;23430;-69
2023/01/28 02:11:33;;;;;;;5.95;5.38;;;;;;;-146.25;72.57;52489.84;2096126;28;25154;-69
2023/01/28 02:12:44;;;;;;;6.53;5.70;;;;;;;-146.25;72.84;52433.06;2095749;28;23164;-70
2023/01/28 02:13:51;;;;;;;6.63;5.03;;;;;;;-146.25;73.13;52506.06;2088246;28;32857;-69
2023/01/28 02:15:00;;;;;;;6.00;5.40;;;;;;;-146.25;73.12;52461.47;2088618;28;33226;-70
2023/01/28 02:16:03;;;;;;;5.43;4.93;;;;;;;-146.25;73.18;52473.63;2096273;28;20902;-70
2023/01/28 02:17:05;;;;;;;7.32;5.53;;;;;;;-146.25;73.23;52469.56;2096778;28;20336;-70
2023/01/28 02:18:07;;;;;;;5.90;5.15;;;;;;;-146.25;73.14;52469.56;2103674;28;30402;-69
2023/01/28 02:19:11;;;;;;;6.47;5.65;;;;;;;-146.25;73.28;52477.69;2103511;28;33044;-70
2023/01/28 02:20:36;;;;;;;8.20;5.65;;;;;;;-146.25;73.47;52447.28;2095761;28;20037;-69
2023/01/28 02:22:04;;;;;;;6.90;5.28;;;;;;;-146.25;73.71;52502.03;2096058;28;22820;-70
2023/01/28 02:23:44;;;;;;;6.25;5.65;;;;;;;-146.25;74.30;52453.34;2097141;22;26468;-70
2023/01/28 02:25:29;;;;;;;6.50;5.13;;;;;;;-146.25;74.49;52485.81;2069244;28;20046;-70
2023/01/28 02:26:30;;;;;;;6.53;5.30;;;;;;;-146.25;75.04;52445.25;2078414;28;20038;-69
2023/01/28 02:27:59;;;;;;;5.97;5.38;;;;;;;-146.25;75.17;52487.81;2072328;28;20046;-70
2023/01/28 02:29:14;;;;;;;6.93;5.75;;;;;;;-146.25;75.39;52467.56;2074940;28;43515;-70
2023/01/28 02:30:25;;;;;;;5.90;5.30;;;;;;;-146.25;75.69;52455.38;2083010;28;20143;-71
2023/01/28 02:31:41;;;;;;;7.30;5.80;;;;;;;-146.25;75.71;52461.47;2080503;28;20030;-72
2023/01/28 02:32:59;;;;;;;6.28;5.22;;;;;;;-146.25;76.18;52467.56;2073956;28;20064;-71
2023/01/28 02:34:41;;;;;;;8.00;6.18;;;;;;;-146.25;76.35;52473.63;2074698;28;20042;-71
2023/01/28 02:35:51;;;;;;;7.68;4.93;;;;;;;-146.25;76.24;52512.16;2077666;28;20864;-70
2023/01/28 02:36:57;;;;;;;7.07;5.38;;;;;;;-146.25;76.79;52481.75;2081709;28;20073;-70
2023/01/28 02:38:16;;;;;;;7.35;6.05;;;;;;;-146.25;76.94;52467.56;2088124;28;34955;-70
2023/01/28 02:39:29;;;;;;;8.25;6.25;;;;;;;-146.25;77.10;52481.75;2072340;28;20038;-69
2023/01/28 02:41:00;;;;;;;6.53;5.60;;;;;;;-146.25;77.15;52485.81;2077834;28;31950;-70
2023/01/28 02:42:20;;;;;;;7.10;5.20;;;;;;;-146.25;77.25;52487.81;2072287;28;20046;-69
2023/01/28 02:43:38;;;;;;;6.10;5.50;;;;;;;-146.25;77.34;52481.75;2073281;28;20054;-69
2023/01/28 02:44:40;;;;;;;6.22;5.07;;;;;;;-146.25;77.04;52445.25;2074130;28;32520;-70
2023/01/28 02:48:24;;;;;;;6.00;5.30;;;;;;;-146.25;77.59;52441.19;2086525;28;20038;-69
2023/01/28 02:49:41;;;;;;;6.13;4.70;;;;;;;-146.25;77.25;52481.75;2080020;28;30757;-70
2023/01/28 02:51:06;;;;;;;6.03;4.70;;;;;;;-146.25;77.80;52441.19;2082129;28;36121;-70
2023/01/28 02:52:17;;;;;;;6.20;5.05;;;;;;;-146.25;77.90;52497.97;2080133;28;34189;-70
2023/01/28 02:53:45;;;;;;;6.40;4.90;;;;;;;-146.25;77.75;52469.56;2083948;28;20142;-70
2023/01/28 02:55:44;;;;;;;5.45;4.90;;;;;;;-146.25;78.14;52443.22;2082439;28;32277;-70
2023/01/28 02:57:01;;;;;;;8.35;4.40;;;;;;;-146.25;77.93;52465.53;2063395;28;20177;-70
2023/01/28 02:58:23;;;;;;;5.05;4.55;;;;;;;-146.25;77.73;52439.16;2064129;28;20145;-70
2023/01/28 02:59:38;;;;;;;6.40;4.70;;;;;;;-146.25;78.17;52467.56;2057864;28;20758;-70
2023/01/28 03:01:01;;;;;;;5.22;4.72;;;;;;;-146.25;78.28;52518.25;2065963;28;20039;-69
2023/01/28 03:02:49;;;;;;;5.78;5.00;;;;;;;-146.25;78.45;52500.00;2080240;28;37517;-71
2023/01/28 03:04:02;;;;;;;6.75;4.80;;;;;;;-146.25;78.86;52491.88;2063375;28;20985;-71
2023/01/28 03:05:27;;;;;;;6.28;5.32;;;;;;;-146.25;78.91;52477.69;2063415;28;20849;-71
2023/01/28 03:06:43;;;;;;;6.63;4.90;;;;;;;-146.25;79.05;52483.78;2070451;28;20050;-70
2023/01/28 03:07:46;;;;;;;7.32;5.50;;;;;;;-146.25;79.10;52493.91;2086374;28;30767;-70
2023/01/28 03:10:22;;;;;;;6.95;4.78;;;;;;;-146.25;79.18;52485.81;2083641;28;32642;-70
2023/01/28 03:37:53;;;;;;;7.30;5.50;;;;;;;-146.25;82.01;52473.63;2082800;28;20160;-71
2023/01/28 03:38:57;;;;;;;7.35;6.13;;;;;;;-146.25;81.86;52502.03;2079893;28;20068;-71
2023/01/28 03:40:09;;;;;;;8.93;6.07;;;;;;;-146.25;82.05;52508.09;2072454;28;20132;-71
2023/01/28 03:41:11;;;;;;;6.03;5.35;;;;;;;-146.25;82.34;52459.44;2089639;28;20061;-72
2023/01/28 03:42:16;;;;;;;7.28;6.10;;;;;;;-146.25;82.43;52502.03;2079666;28;20177;-71
2023/01/28 03:43:37;;;;;;;6.63;5.55;;;;;;;-146.25;82.67;52485.81;2077651;28;20046;-71
2023/01/28 03:44:51;;;;;;;7.65;6.38;;;;;;;-146.25;82.44;52465.53;2082811;28;20818;-71
2023/01/28 03:45:56;;;;;;;6.50;5.13;;;;;;;-146.25;82.64;52495.94;2081818;28;21032;-71
2023/01/28 03:46:58;;;;;;;8.60;6.20;;;;;;;-146.25;83.16;52489.84;2072286;28;20998;-71
2023/01/28 03:47:59;;;;;;;8.15;6.30;;;;;;;-146.25;83.01;52455.38;2080448;28;20110;-71
2023/01/28 03:49:01;;;;;;;9.52;6.18;;;;;;;-146.25;82.91;52477.69;2088308;28;20156;-71
2023/01/28 03:50:05;;;;;;;8.13;5.70;;;;;;;-146.25;83.26;52485.81;2079992;28;20152;-71
2023/01/28 03:51:14;;;;;;;7.50;5.72;;;;;;;-146.25;83.34;52465.53;2087928;28;20175;-71
2023/01/28 03:52:29;;;;;;;7.43;5.68;;;;;;;-146.25;83.27;52481.75;2088304;28;24077;-71
2023/01/28 03:53:42;;;;;;;8.75;7.03;;;;;;;-146.25;83.44;52479.72;2088047;28;20072;-71
2023/01/28 03:54:48;;;;;;;6.82;6.05;;;;;;;-146.25;83.53;52477.69;2080611;28;20092;-71
2023/01/28 03:55:52;;;;;;;10.10;6.60;;;;;;;-146.25;83.26;52449.31;2072662;28;20045;-71
2023/01/28 03:56:54;;;;;;;8.68;5.72;;;;;;;-146.25;83.24;52495.94;2072257;28;20090;-71
2023/01/28 03:57:56;;;;;;;6.93;6.18;;;;;;;-146.25;82.89;52463.50;2080032;28;20049;-71
2023/01/28 03:58:58;;;;;;;8.52;6.63;;;;;;;-146.25;83.18;52491.88;2080222;28;20112;-71
2023/01/28 04:00:02;;;;;;;8.20;6.57;;;;;;;-146.25;83.41;52479.72;2088204;28;27777;-71
2023/01/28 04:01:14;;;;;;;6.50;5.80;;;;;;;-146.25;83.23;52475.66;2096219;28;20053;-71
2023/01/28 04:02:17;;;;;;;7.80;6.30;;;;;;;-146.25;83.70;52475.66;2088112;28;20167;-72
2023/01/28 04:03:20;;;;;;;7.80;6.68;;;;;;;-146.25;83.39;52424.97;2080236;28;20073;-71
2023/01/28 04:04:31;;;;;;;7.82;6.57;;;;;;;-146.25;83.65;52467.56;2089434;28;20053;-71
2023/01/28 04:05:34;;;;;;;7.47;6.18;;;;;;;-146.25;83.72;52483.78;2096628;28;20041;-71
2023/01/28 04:06:35;;;;;;;9.93;6.63;;;;;;;-146.25;83.94;52489.84;2096455;28;20151;-71
2023/01/28 04:08:06;;;;;;;7.18;6.13;;;;;;;-146.25;84.59;52465.53;2087050;28;20099;-71
2023/01/28 04:09:34;;;;;;;7.47;5.72;;;;;;;-146.25;84.81;52457.41;2088216;28;20783;-71
2023/01/28 04:11:14;;;;;;;8.85;6.68;;;;;;;-146.25;84.69;52469.56;2082760;28;20085;-71
2023/01/28 04:12:19;;;;;;;7.80;6.07;;;;;;;-146.25;85.04;52487.81;2082191;28;20046;-71
2023/01/28 04:13:29;;;;;;;9.38;6.80;;;;;;;-146.25;84.89;52453.34;2064453;28;20045;-71
2023/01/28 04:14:31;;;;;;;9.05;7.07;;;;;;;-146.25;85.07;52516.22;2067169;28;22210;-73
2023/01/28 04:16:02;;;;;;;9.65;6.80;;;;;;;-146.25;85.07;52461.47;2082253;28;20171;-71
2023/01/28 04:17:09;;;;;;;8.10;6.53;;;;;;;-146.25;85.26;52453.34;2088047;28;20041;-71
2023/01/28 04:18:11;;;;;;;9.23;6.63;;;;;;;-146.25;85.63;52489.84;2079879;28;20132;-71
2023/01/28 04:19:13;;;;;;;8.35;6.45;;;;;;;-146.25;85.74;52477.69;2080441;28;21549;-71
2023/01/28 04:20:19;;;;;;;9.00;7.40;;;;;;;-146.25;85.65;52469.56;2096446;28;20049;-71
2023/01/28 04:21:21;;;;;;;7.82;7.00;;;;;;;-146.25;86.26;52479.72;2079194;28;20046;-70
2023/01/28 04:22:23;;;;;;;8.25;6.85;;;;;;;-146.25;86.03;52477.69;2064080;28;20054;-72
2023/01/28 04:23:25;;;;;;;8.93;6.32;;;;;;;-146.25;86.52;52455.38;2079585;28;20104;-71
2023/01/28 04:24:30;;;;;;;7.50;6.25;;;;;;;-146.25;86.13;52528.38;2088544;28;20045;-71
2023/01/28 04:25:34;;;;;;;9.82;7.13;;;;;;;-146.25;86.78;52491.88;2096370;28;20048;-71
2023/01/28 04:26:40;;;;;;;8.52;6.90;;;;;;;-146.25;86.18;52459.44;2096768;28;20079;-71
2023/01/28 04:27:42;;;;;;;9.05;6.78;;;;;;;-146.25;86.83;52455.38;2087831;28;20075;-72
2023/01/28 04:28:51;;;;;;;10.93;7.28;;;;;;;-146.25;87.08;52489.84;2081087;28;20180;-71
2023/01/28 04:29:55;;;;;;;8.75;6.65;;;;;;;-146.25;86.99;52477.69;2080099;28;20112;-72
2023/01/28 04:31:08;;;;;;;8.02;6.43;;;;;;;-146.25;86.44;52502.03;2081141;28;20042;-70
2023/01/28 04:32:31;;;;;;;8.80;6.28;;;;;;;-146.25;86.69;52473.63;2082738;28;20973;-72
2023/01/28 04:33:52;;;;;;;11.73;7.25;;;;;;;-146.25;87.08;52518.25;2090666;28;20057;-71
2023/01/28 04:35:05;;;;;;;9.82;7.32;;;;;;;-146.25;86.80;52487.81;2087790;28;20195;-70
2023/01/28 04:36:26;;;;;;;8.13;6.68;;;;;;;-146.25;87.64;52475.66;2081942;28;20072;-70
2023/01/28 04:37:50;;;;;;;8.77;7.32;;;;;;;-146.25;87.46;52455.38;2082309;28;20434;-70
2023/01/28 04:39:05;;;;;;;8.45;6.70;;;;;;;-146.25;87.00;52465.53;2097520;28;20808;-70
2023/01/28 04:40:19;;;;;;;8.25;6.45;;;;;;;-146.25;87.39;52506.06;2096020;28;20211;-70
2023/01/28 04:41:29;;;;;;;8.77;6.60;;;;;;;-146.25;87.41;52467.56;2094703;28;20071;-70
2023/01/28 04:42:37;;;;;;;9.02;6.85;;;;;;;-146.25;87.61;52437.13;2081430;28;20197;-70
2023/01/28 04:43:57;;;;;;;;;;;;;;;-146.25;87.86;52473.63;2074386;28;20046;-69
2023/01/28 04:45:07;;;;;;;8.88;6.30;;;;;;;-146.25;88.30;52489.84;2085175;28;19928;-70
2023/01/28 04:46:32;;;;;;;7.50;6.55;;;;;;;-146.25;87.76;52497.97;2088000;28;20445;-70
2023/01/28 04:47:48;;;;;;;10.98;7.65;;;;;;;-146.25;88.14;52520.28;2081290;28;20084;-70
2023/01/28 04:49:05;;;;;;;10.77;6.85;;;;;;;-146.25;88.32;52487.81;2081943;28;20121;-69
2023/01/28 04:50:13;;;;;;;7.30;6.07;;;;;;;-146.25;88.48;52518.25;2088601;28;20164;-69
2023/01/28 04:51:35;;;;;;;9.45;7.00;;;;;;;-146.25;88.17;52495.94;2092065;28;20049;-69
2023/01/28 04:52:56;;;;;;;8.52;6.90;;;;;;;-146.25;88.92;52473.63;2087586;28;20065;-69
2023/01/28 04:54:21;;;;;;;10.35;7.88;;;;;;;-146.25;88.81;52489.84;2091421;28;20127;-69
2023/01/28 04:55:23;;;;;;;9.48;7.10;;;;;;;-146.25;89.09;52485.81;2087666;28;20122;-69
2023/01/28 04:56:27;;;;;;;9.00;7.18;;;;;;;-146.25;88.76;52489.84;2087112;28;31291;-71
2023/01/28 04:57:29;;;;;;;11.90;8.02;;;;;;;-146.25;88.46;52471.59;2088044;28;20053;-70
2023/01/28 04:58:31;;;;;;;8.98;7.03;;;;;;;-146.25;88.67;52502.03;2087645;28;32388;-69
2023/01/28 04:59:37;;;;;;;9.40;7.45;;;;;;;-146.25;88.98;52471.59;2087999;28;20042;-69
2023/01/28 05:00:39;;;;;;;9.20;7.60;;;;;;;-146.25;89.04;52465.53;2087678;28;20041;-69
2023/01/28 05:01:40;;;;;;;8.95;7.13;;;;;;;-146.25;88.66;52489.84;2087202;28;20823;-69
2023/01/28 05:02:45;;;;;;;9.43;7.07;;;;;;;-146.25;88.90;52475.66;2087275;28;40304;-69
2023/01/28 05:03:47;;;;;;;12.57;7.57;;;;;;;-146.25;88.99;52471.59;2096927;28;20049;-70
2023/01/28 05:04:56;;;;;;;9.50;7.20;;;;;;;-146.25;88.99;52489.84;2096206;28;20176;-70
2023/01/28 05:06:12;;;;;;;10.70;7.45;;;;;;;-146.25;89.38;52489.84;2087890;28;20045;-68
2023/01/28 05:07:16;;;;;;;9.88;7.35;;;;;;;-146.25;89.48;52465.53;2079893;28;20042;-70
2023/01/28 05:08:19;;;;;;;11.13;8.88;;;;;;;-146.25;89.51;52479.72;2071174;28;20047;-68
2023/01/28 05:09:21;;;;;;;11.70;8.55;;;;;;;-146.25;89.26;52475.66;2072336;28;20045;-68
2023/01/28 05:10:26;;;;;;;10.88;7.90;;;;;;;-146.25;88.97;52506.06;2079840;28;20054;-69
2023/01/28 05:11:30;;;;;;;10.43;7.88;;;;;;;-146.25;89.71;52477.69;2088280;28;20079;-69
2023/01/28 05:12:35;;;;;;;10.25;8.23;;;;;;;-146.25;89.07;52481.75;2095755;28;20047;-69
2023/01/28 05:13:40;;;;;;;10.88;8.27;;;;;;;-146.25;89.02;52487.81;2087385;28;20042;-69
2023/01/28 05:14:44;;;;;;;11.10;8.38;;;;;;;-146.25;89.43;52467.56;2079769;28;20188;-69
2023/01/28 05:15:52;;;;;;;10.32;7.70;;;;;;;-146.25;88.94;52485.81;2080376;28;20169;-69
2023/01/28 05:16:55;;;;;;;10.32;8.32;;;;;;;-146.25;89.28;52514.19;2071206;28;21057;-69
2023/01/28 05:17:57;;;;;;;12.20;7.35;;;;;;;-146.25;89.65;52475.66;2071716;28;20861;-68
2023/01/28 05:19:06;;;;;;;6.85;5.55;;;;;;;-146.25;89.99;52469.56;2080658;28;20111;-69
2023/01/28 05:20:15;;;;;;;9.77;7.72;;;;;;;-146.25;89.79;52522.28;2080409;28;20848;-69
2023/01/28 05:21:20;;;;;;;10.98;7.95;;;;;;;-146.25;89.81;52481.75;2079801;28;20261;-69
2023/01/28 05:22:27;;;;;;;9.52;7.90;;;;;;;-146.25;89.66;52467.56;2080449;28;20080;-70
2023/01/28 05:23:47;;;;;;;11.95;8.35;;;;;;;-146.25;89.71;52457.41;2081773;28;20104;-67
2023/01/28 05:24:50;;;;;;;12.05;8.40;;;;;;;-146.25;90.00;52463.50;2087726;28;20149;-70
2023/01/28 05:25:52;;;;;;;12.00;8.20;;;;;;;-146.25;89.46;52481.75;2087495;28;20049;-69
2023/01/28 05:26:54;;;;;;;9.60;7.28;;;;;;;-146.25;90.01;52485.81;2079575;28;20173;-70
2023/01/28 05:27:58;;;;;;;11.38;7.97;;;;;;;-146.25;89.94;52497.97;2079675;28;20053;-67
2023/01/28 05:29:02;;;;;;;11.35;8.57;;;;;;;-146.25;89.97;52461.47;2079699;28;20077;-68
2023/01/28 05:30:05;;;;;;;10.82;8.18;;;;;;;-146.25;89.92;52461.47;2079479;28;20041;-68
2023/01/28 05:31:09;;;;;;;8.65;6.85;;;;;;;-146.25;89.92;52526.34;2071474;28;20043;-69
2023/01/28 05:32:10;;;;;;;10.32;8.40;;;;;;;-146.25;90.15;52481.75;2064506;28;20072;-69
2023/01/28 05:33:13;;;;;;;10.80;8.43;;;;;;;-146.25;90.46;52461.47;2079530;28;20830;-69
2023/01/28 05:34:15;;;;;;;11.48;8.57;;;;;;;-146.25;90.48;52491.88;2079381;28;20041;-69
2023/01/28 05:35:17;;;;;;;11.10;8.88;;;;;;;-146.25;90.15;52465.53;2079704;28;20034;-68
2023/01/28 05:36:19;;;;;;;10.77;8.55;;;;;;;-146.25;90.23;52489.84;2079851;28;20140;-69
2023/01/28 05:37:21;;;;;;;9.63;7.53;;;;;;;-146.25;90.15;52479.72;2079813;28;20077;-68
2023/01/28 05:38:30;;;;;;;9.05;7.05;;;;;;;-146.25;90.28;52485.81;2080494;28;20077;-69
2023/01/28 05:39:32;;;;;;;11.10;8.13;;;;;;;-146.25;90.18;52473.63;2080263;28;21106;-68
2023/01/28 05:40:34;;;;;;;15.63;8.60;;;;;;;-146.25;90.46;52481.75;2079308;28;20053;-68
2023/01/28 05:41:36;;;;;;;11.60;8.30;;;;;;;-146.25;90.67;52481.75;2079689;28;20040;-69
2023/01/28 05:42:38;;;;;;;10.45;8.07;;;;;;;-146.25;90.64;52459.44;2079278;28;20028;-68
2023/01/28 05:43:55;;;;;;;12.07;8.40;;;;;;;-146.25;90.48;52471.59;2081274;28;20053;-69
2023/01/28 05:45:18;;;;;;;12.18;8.02;;;;;;;-146.25;90.60;52506.06;2082720;28;20484;-68